Cottonton, Alabama
Current Conditions -  °F | °C
As of 9:58 PM on Friday 24 Oct 2014 (Local Time) from KLSF Reporting Station
Clear Clear  
Wind Chill: 49°   Ceiling: Unl
Heat Index: 49°   Visibility: 10mi
Dew Point: 49°   Wind: 1mph
Humidity: 98%   Direction: 140°SE
Pressure: 30.04"   Gusts: NA
Location:  32.15°N, 85.07°W
Report Text: KLSF 250258Z AUTO 14001KT 10SM CLR 10/09 A3004 RMK AO2 SLP175 T00950092 52011
Loading
Personal Weather Stations






























Interactive Weather Map
Tropical Storm Tracking
New forecast layout! Learn more

10-Day Weather Forecast

Advertisements
Track Severe Weather on mobile